createdAt,value
2022-10-08T00:01:11.202Z,101068.81
2022-10-08T00:03:17.145Z,101100.41
2022-10-08T00:05:19.743Z,101061.00
2022-10-08T00:07:22.477Z,101062.50
2022-10-08T00:09:25.046Z,101070.41
2022-10-08T00:15:54.939Z,101088.16
2022-10-08T00:17:57.685Z,101088.16
2022-10-08T00:20:00.215Z,101079.97
2022-10-08T00:22:02.834Z,101056.28
2022-10-08T00:24:07.583Z,101076.53
2022-10-08T00:26:11.315Z,101074.16
2022-10-08T00:28:14.042Z,101064.28
2022-10-08T00:30:16.753Z,101061.91
2022-10-08T00:32:20.278Z,101082.72
2022-10-08T00:34:25.541Z,101078.66
2022-10-08T00:36:34.092Z,101093.66
2022-10-08T00:38:37.225Z,101071.78
2022-10-08T00:40:46.003Z,101071.69
2022-10-08T00:42:48.844Z,101040.06
2022-10-08T00:44:59.711Z,101096.91
2022-10-08T00:47:02.259Z,101019.75
2022-10-08T00:49:11.614Z,101097.84
2022-10-08T00:51:14.536Z,101065.81
2022-10-08T00:53:17.109Z,101066.63
2022-10-08T00:55:22.394Z,101091.94
2022-10-08T00:57:27.291Z,101082.91
2022-10-08T00:59:29.836Z,101065.94
2022-10-08T01:01:32.713Z,101067.97
2022-10-08T01:03:35.304Z,101068.19
2022-10-08T01:05:55.967Z,101063.72
2022-10-08T01:08:19.522Z,101084.13
2022-10-08T01:11:04.549Z,101062.38
2022-10-08T01:13:42.035Z,101075.22
2022-10-08T01:16:22.986Z,101059.06
2022-10-08T01:18:43.663Z,101063.88
2022-10-08T01:21:04.931Z,101051.06
2022-10-08T01:23:53.295Z,101035.84
2022-10-08T01:26:52.234Z,101059.44
2022-10-08T01:29:22.271Z,101054.97
2022-10-08T01:31:32.439Z,101015.34
2022-10-08T01:33:43.049Z,101019.25
2022-10-08T01:35:53.874Z,101036.28
2022-10-08T01:38:02.566Z,101010.19
2022-10-08T01:40:13.999Z,101036.63
2022-10-08T01:42:19.360Z,101028.41
2022-10-08T01:44:55.255Z,101041.19
2022-10-08T01:47:01.347Z,101031.59
2022-10-08T01:49:13.047Z,101026.78
2022-10-08T01:51:23.426Z,101047.84
2022-10-08T01:53:32.879Z,100996.47
2022-10-08T01:55:42.238Z,101038.25
2022-10-08T01:57:46.727Z,101023.81
2022-10-08T02:00:04.954Z,101043.16
2022-10-08T02:02:25.114Z,101037.16
2022-10-08T02:04:33.463Z,101013.38
2022-10-08T02:06:39.993Z,101017.28
2022-10-08T02:08:44.009Z,101019.78
2022-10-08T02:10:46.555Z,101000.09
2022-10-08T02:12:49.986Z,100997.69
2022-10-08T02:14:57.169Z,101017.63
2022-10-08T02:17:29.119Z,101018.06
2022-10-08T02:19:56.615Z,101032.25
2022-10-08T02:22:01.315Z,100993.13
2022-10-08T02:24:10.517Z,100980.66
2022-10-08T02:26:27.955Z,101011.88
2022-10-08T02:28:55.322Z,101013.16
2022-10-08T02:31:07.139Z,101009.94
2022-10-08T02:33:16.085Z,100982.72
2022-10-08T02:35:27.096Z,101017.84
2022-10-08T02:37:37.888Z,100990.72
2022-10-08T02:39:49.262Z,101003.66
2022-10-08T02:41:57.429Z,100996.44
2022-10-08T02:44:06.996Z,100994.19
2022-10-08T02:46:18.376Z,100984.34
2022-10-08T02:48:34.076Z,100981.59
2022-10-08T02:50:41.449Z,100992.38
2022-10-08T02:52:46.486Z,101014.53
2022-10-08T02:54:52.027Z,100992.81
2022-10-08T02:57:31.180Z,101006.66
2022-10-08T02:59:34.009Z,100993.28
2022-10-08T03:01:45.666Z,101008.16
2022-10-08T03:03:57.273Z,101020.16
2022-10-08T03:06:04.329Z,101018.56
2022-10-08T03:08:08.764Z,101001.28
2022-10-08T03:10:12.965Z,101002.91
2022-10-08T03:12:15.860Z,100992.47
2022-10-08T03:14:20.641Z,100999.34
2022-10-08T03:16:30.935Z,101001.75
2022-10-08T03:18:35.003Z,100983.31
2022-10-08T03:20:45.812Z,101002.66
2022-10-08T03:22:48.682Z,101012.72
2022-10-08T03:24:55.999Z,100994.19
2022-10-08T03:26:59.853Z,100996.38
2022-10-08T03:29:03.337Z,100982.41
2022-10-08T03:31:07.109Z,100957.78
2022-10-08T03:33:09.741Z,100993.75
2022-10-08T03:35:12.310Z,100984.44
2022-10-08T03:37:14.825Z,100914.78
2022-10-08T03:39:17.475Z,101000.25
2022-10-08T03:41:21.553Z,101000.25
2022-10-08T03:43:25.198Z,101021.53
2022-10-08T03:45:27.818Z,100998.75
2022-10-08T03:47:30.350Z,100995.22
2022-10-08T03:49:32.993Z,101005.19
2022-10-08T03:51:35.583Z,101018.09
2022-10-08T03:53:41.214Z,101010.56
2022-10-08T03:55:43.818Z,101017.75
2022-10-08T03:57:46.358Z,101015.06
2022-10-08T03:59:48.931Z,100998.25
2022-10-08T04:01:51.558Z,101004.06
2022-10-08T04:03:54.471Z,101017.94
2022-10-08T04:05:57.914Z,100965.34
2022-10-08T04:08:00.530Z,100999.00
2022-10-08T04:10:03.449Z,101014.25
2022-10-08T04:12:06.101Z,100975.56
2022-10-08T04:14:08.755Z,101018.47
2022-10-08T04:16:18.115Z,100982.31
2022-10-08T04:18:20.791Z,101008.31
2022-10-08T04:20:23.573Z,100999.50
2022-10-08T04:22:26.306Z,101003.50
2022-10-08T04:24:28.837Z,100982.66
2022-10-08T04:26:31.463Z,101033.38
2022-10-08T04:28:38.887Z,101010.50
2022-10-08T04:30:41.662Z,101000.19
2022-10-08T04:32:44.563Z,101003.84
2022-10-08T04:34:47.428Z,101001.81
2022-10-08T04:36:50.003Z,101009.00
2022-10-08T04:38:52.857Z,100932.13
2022-10-08T04:41:26.188Z,100989.66
2022-10-08T04:43:29.022Z,100961.84
2022-10-08T04:45:31.539Z,100986.75
2022-10-08T04:47:34.103Z,101017.47
2022-10-08T04:49:36.728Z,101009.56
2022-10-08T04:51:39.263Z,100990.09
2022-10-08T04:53:42.059Z,101008.31
2022-10-08T04:55:44.578Z,100992.84
2022-10-08T04:57:47.178Z,101006.13
2022-10-08T05:00:16.502Z,101013.56
2022-10-08T05:02:12.361Z,101009.84
2022-10-08T05:04:15.040Z,100961.88
2022-10-08T05:06:20.790Z,101022.28
2022-10-08T05:08:24.087Z,101008.91
2022-10-08T05:10:27.000Z,101015.28
2022-10-08T05:12:29.525Z,101007.38
2022-10-08T05:14:32.056Z,100971.78
2022-10-08T05:16:34.753Z,101021.91
2022-10-08T05:18:39.301Z,101042.63
2022-10-08T05:20:41.881Z,100975.72
2022-10-08T05:22:44.746Z,101011.09
2022-10-08T05:24:47.552Z,101046.22
2022-10-08T05:26:59.613Z,101029.22
2022-10-08T05:29:02.632Z,101041.03
2022-10-08T05:31:05.361Z,101015.84
2022-10-08T05:33:07.971Z,101030.94
2022-10-08T05:35:24.617Z,101034.81
2022-10-08T05:37:27.217Z,100988.31
2022-10-08T05:39:29.747Z,100998.50
2022-10-08T05:41:36.895Z,101045.16
2022-10-08T05:43:40.304Z,101035.78
2022-10-08T05:45:53.842Z,100972.25
2022-10-08T05:48:00.149Z,100990.03
2022-10-08T05:50:02.790Z,100995.53
2022-10-08T05:52:05.391Z,101020.63
2022-10-08T05:54:07.992Z,100952.41
2022-10-08T05:56:12.595Z,100990.44
2022-10-08T05:58:15.141Z,100989.75
2022-10-08T06:00:18.848Z,101002.00
2022-10-08T06:02:22.284Z,100997.31
2022-10-08T06:04:24.933Z,101014.97
2022-10-08T06:06:28.290Z,101009.25
2022-10-08T06:08:30.908Z,101013.94
2022-10-08T06:10:34.757Z,101020.38
2022-10-08T06:12:37.347Z,101008.84
2022-10-08T06:14:40.882Z,101018.56
2022-10-08T06:16:43.537Z,101009.84
2022-10-08T06:18:46.089Z,101005.84
2022-10-08T06:20:48.807Z,101068.81
2022-10-08T06:22:51.440Z,101003.88
2022-10-08T06:24:54.038Z,101024.00
2022-10-08T06:26:56.539Z,101024.91
2022-10-08T06:28:59.301Z,101043.13
2022-10-08T06:31:02.509Z,101039.94
2022-10-08T06:33:05.099Z,101015.13
2022-10-08T06:35:08.108Z,101042.63
2022-10-08T06:37:10.764Z,101042.19
2022-10-08T06:39:15.917Z,101050.72
2022-10-08T06:41:18.589Z,101055.28
2022-10-08T06:43:22.148Z,101043.94
2022-10-08T06:45:24.674Z,101045.66
2022-10-08T06:47:27.251Z,101054.25
2022-10-08T06:49:30.842Z,101053.56
2022-10-08T06:51:33.841Z,101060.19
2022-10-08T06:53:36.613Z,101063.97
2022-10-08T06:55:39.324Z,101073.69
2022-10-08T06:57:41.851Z,101099.75
2022-10-08T07:01:06.128Z,101098.28
2022-10-08T07:03:09.422Z,101069.88
2022-10-08T07:05:12.004Z,101062.91
2022-10-08T07:07:14.782Z,101090.25
2022-10-08T07:09:18.156Z,101083.41
2022-10-08T07:11:21.780Z,101104.56
2022-10-08T07:13:24.377Z,101050.47
2022-10-08T07:15:26.951Z,101040.63
2022-10-08T07:17:30.061Z,101076.91
2022-10-08T07:19:34.688Z,101071.75
2022-10-08T07:21:37.711Z,101066.94
2022-10-08T07:23:40.805Z,101057.56
2022-10-08T07:25:43.395Z,101036.84
2022-10-08T07:27:45.901Z,101037.31
2022-10-08T07:29:48.483Z,101060.78
2022-10-08T07:31:51.256Z,101068.13
2022-10-08T07:33:54.107Z,101075.91
2022-10-08T07:36:05.951Z,101089.38
2022-10-08T07:38:08.538Z,101042.09
2022-10-08T07:40:11.665Z,101015.22
2022-10-08T07:42:14.279Z,101053.56
2022-10-08T07:44:17.931Z,101105.16
2022-10-08T07:46:21.180Z,101072.16
2022-10-08T07:48:24.400Z,101115.53
2022-10-08T07:50:26.982Z,101077.06
2022-10-08T07:52:30.363Z,101045.47
2022-10-08T07:54:32.947Z,101046.59
2022-10-08T07:56:36.501Z,101042.09
2022-10-08T07:58:40.031Z,101116.44
2022-10-08T08:00:42.719Z,101075.56
2022-10-08T08:02:48.857Z,101093.16
2022-10-08T08:04:51.753Z,101061.50
2022-10-08T08:06:54.324Z,101064.34
2022-10-08T08:08:56.969Z,101073.47
2022-10-08T08:11:01.345Z,101128.53
2022-10-08T08:13:04.059Z,101094.78
2022-10-08T08:15:07.440Z,101094.13
2022-10-08T08:17:10.020Z,101108.88
2022-10-08T08:19:12.616Z,101118.88
2022-10-08T08:21:20.581Z,101095.69
2022-10-08T08:23:23.150Z,101075.72
2022-10-08T08:25:25.698Z,101064.69
2022-10-08T08:27:28.396Z,101084.69
2022-10-08T08:29:31.551Z,101083.25
2022-10-08T08:31:40.608Z,101138.84
2022-10-08T08:33:47.943Z,101098.72
2022-10-08T08:35:55.657Z,101077.56
2022-10-08T08:37:58.606Z,101098.00
2022-10-08T08:40:01.172Z,101108.78
2022-10-08T08:42:28.536Z,101106.19
2022-10-08T08:44:41.549Z,101083.75
2022-10-08T08:47:12.746Z,101129.69
2022-10-08T08:49:42.920Z,101134.06
2022-10-08T08:51:45.511Z,101085.63
2022-10-08T08:53:48.119Z,101075.63
2022-10-08T08:55:54.754Z,101109.56
2022-10-08T08:58:10.913Z,101128.09
2022-10-08T09:00:24.068Z,101099.13
2022-10-08T09:02:34.638Z,101123.19
2022-10-08T09:05:15.113Z,101099.50
2022-10-08T09:07:23.437Z,101133.44
2022-10-08T09:09:37.482Z,101105.53
2022-10-08T09:11:40.330Z,101096.88
2022-10-08T09:14:44.163Z,101136.59
2022-10-08T09:16:47.029Z,101075.16
2022-10-08T09:18:51.559Z,101088.28
2022-10-08T09:20:54.133Z,101081.69
2022-10-08T09:22:57.788Z,101092.56
2022-10-08T09:25:11.746Z,101129.22
2022-10-08T09:27:15.569Z,101091.47
2022-10-08T09:29:33.793Z,101071.81
2022-10-08T09:31:39.285Z,101134.06
2022-10-08T09:34:34.775Z,101144.19
2022-10-08T09:36:51.021Z,101140.75
2022-10-08T09:38:59.134Z,101124.03
2022-10-08T09:41:19.306Z,101145.28
2022-10-08T09:43:26.231Z,101118.16
2022-10-08T09:45:47.013Z,101140.50
2022-10-08T09:48:25.824Z,101151.69
2022-10-08T09:50:28.461Z,101121.91
2022-10-08T09:52:31.407Z,101129.44
2022-10-08T09:54:43.465Z,101156.09
2022-10-08T09:57:16.711Z,101158.25
2022-10-08T09:59:24.275Z,101152.94
2022-10-08T10:06:10.192Z,101132.03
2022-10-08T10:08:48.304Z,101155.19
2022-10-08T10:10:50.886Z,101147.19
2022-10-08T10:13:10.747Z,101128.03
2022-10-08T10:15:19.358Z,101155.88
2022-10-08T10:17:49.030Z,101159.84
2022-10-08T10:19:59.665Z,101162.69
2022-10-08T10:22:24.141Z,101125.47
2022-10-08T10:25:08.582Z,101152.78
2022-10-08T10:27:30.135Z,101180.44
2022-10-08T10:30:04.931Z,101148.09
2022-10-08T10:32:21.066Z,101120.78
2022-10-08T10:34:31.139Z,101154.09
2022-10-08T10:36:40.778Z,101172.69
2022-10-08T10:38:53.955Z,101186.03
2022-10-08T10:41:08.311Z,101187.88
2022-10-08T10:43:28.416Z,101195.78
2022-10-08T10:46:13.387Z,101151.06
2022-10-08T10:48:16.050Z,101181.09
2022-10-08T10:50:34.449Z,101163.03
2022-10-08T10:53:13.187Z,101151.13
2022-10-08T10:55:30.806Z,101193.97
2022-10-08T10:58:06.773Z,101195.53
2022-10-08T11:00:23.007Z,101192.84
2022-10-08T11:02:54.602Z,101179.53
2022-10-08T11:05:17.422Z,101202.91
2022-10-08T11:07:33.484Z,101197.34
2022-10-08T11:09:57.906Z,101199.97
2022-10-08T11:12:30.701Z,101196.50
2022-10-08T11:14:55.978Z,101198.59
2022-10-08T11:17:27.602Z,101203.91
2022-10-08T11:19:48.450Z,101210.31
2022-10-08T11:22:08.187Z,101191.97
2022-10-08T11:24:27.355Z,101183.72
2022-10-08T11:26:56.177Z,101215.38
2022-10-08T11:29:49.807Z,101220.47
2022-10-08T11:31:53.521Z,101170.44
2022-10-08T11:33:56.699Z,101167.25
2022-10-08T11:36:13.885Z,101208.22
2022-10-08T11:38:37.351Z,101181.41
2022-10-08T11:40:46.775Z,101188.63
2022-10-08T11:43:08.889Z,101204.03
2022-10-08T11:45:23.525Z,101209.09
2022-10-08T11:47:43.959Z,101209.09
2022-10-08T11:49:54.429Z,101204.28
2022-10-08T11:51:56.989Z,101177.44
2022-10-08T11:54:15.334Z,101197.88
2022-10-08T11:56:20.443Z,101169.16
2022-10-08T11:58:28.349Z,101208.28
2022-10-08T12:00:40.111Z,101158.25
2022-10-08T12:02:44.332Z,101184.31
2022-10-08T12:04:49.077Z,101199.50
2022-10-08T12:07:21.886Z,101198.69
2022-10-08T12:09:25.413Z,101185.38
2022-10-08T12:11:37.665Z,101192.56
2022-10-08T12:13:40.275Z,101168.38
2022-10-08T12:15:43.532Z,101201.38
2022-10-08T12:17:58.786Z,101179.00
2022-10-08T12:20:20.198Z,101127.94
2022-10-08T12:23:22.838Z,101195.53
2022-10-08T12:26:00.044Z,101195.81
2022-10-08T12:28:37.394Z,101201.16
2022-10-08T12:30:55.700Z,101205.69
2022-10-08T12:32:59.034Z,101164.72
2022-10-08T12:35:01.932Z,101153.56
2022-10-08T12:37:40.871Z,101175.66
2022-10-08T12:39:47.344Z,101171.66
2022-10-08T12:42:31.429Z,101159.44
2022-10-08T12:45:18.472Z,101191.34
2022-10-08T12:47:53.710Z,101205.69
2022-10-08T12:50:24.335Z,101200.88
2022-10-08T12:52:33.473Z,101163.94
2022-10-08T12:54:39.103Z,101203.56
2022-10-08T12:56:41.735Z,101210.22
2022-10-08T12:58:46.518Z,101212.59
2022-10-08T13:00:58.991Z,101208.88
2022-10-08T13:03:05.141Z,101195.59
2022-10-08T13:05:27.556Z,101221.91
2022-10-08T13:07:34.387Z,101214.47
2022-10-08T13:09:36.958Z,101176.44
2022-10-08T13:11:39.535Z,101180.16
2022-10-08T13:13:49.546Z,101217.66
2022-10-08T13:16:00.153Z,101219.53
2022-10-08T13:18:21.862Z,101193.22
2022-10-08T13:20:26.746Z,101226.97
2022-10-08T13:22:31.333Z,101203.03
2022-10-08T13:24:40.025Z,101227.50
2022-10-08T13:26:53.824Z,101225.13
2022-10-08T13:29:29.621Z,101202.50
2022-10-08T13:31:35.043Z,101207.25
2022-10-08T13:33:38.735Z,101188.09
2022-10-08T13:35:42.552Z,101245.00
2022-10-08T13:37:52.108Z,101240.22
2022-10-08T13:40:11.247Z,101244.72
2022-10-08T13:42:19.042Z,101235.69
2022-10-08T13:44:21.923Z,101194.72
2022-10-08T13:46:24.516Z,101211.22
2022-10-08T13:48:27.195Z,101211.16
2022-10-08T13:50:29.793Z,101174.97
2022-10-08T13:52:34.075Z,101170.72
2022-10-08T13:54:41.480Z,101208.72
2022-10-08T13:56:44.808Z,101174.56
2022-10-08T13:58:47.443Z,101230.75
2022-10-08T14:00:50.102Z,101204.88
2022-10-08T14:02:53.386Z,101204.13
2022-10-08T14:04:55.974Z,101182.56
2022-10-08T14:08:20.333Z,101224.09
2022-10-08T14:10:23.518Z,101196.97
2022-10-08T14:12:30.846Z,101207.88
2022-10-08T14:14:33.488Z,101198.53
2022-10-08T14:16:36.096Z,101199.88
2022-10-08T14:18:38.836Z,101212.91
2022-10-08T14:20:41.688Z,101213.97
2022-10-08T14:22:44.278Z,101175.06
2022-10-08T14:24:46.915Z,101210.47
2022-10-08T14:26:49.971Z,101214.41
2022-10-08T14:28:52.502Z,101209.88
2022-10-08T14:30:55.092Z,101245.06
2022-10-08T14:32:57.681Z,101209.44
2022-10-08T14:35:00.260Z,101191.13
2022-10-08T14:37:03.577Z,101204.97
2022-10-08T14:39:06.266Z,101214.81
2022-10-08T14:41:09.054Z,101171.94
2022-10-08T14:43:11.661Z,101231.06
2022-10-08T14:45:14.566Z,101228.16
2022-10-08T14:47:17.116Z,101195.66
2022-10-08T14:49:24.534Z,101233.19
2022-10-08T14:51:28.180Z,101179.97
2022-10-08T14:53:30.719Z,101193.22
2022-10-08T14:55:44.760Z,101195.88
2022-10-08T14:57:56.030Z,101200.66
2022-10-08T14:59:58.690Z,101167.63
2022-10-08T15:02:01.405Z,101201.91
2022-10-08T15:04:04.978Z,101234.44
2022-10-08T15:06:07.770Z,101195.59
2022-10-08T15:08:10.385Z,101194.56
2022-10-08T15:14:44.606Z,101200.34
2022-10-08T15:16:47.238Z,101234.44
2022-10-08T15:18:49.884Z,101264.97
2022-10-08T15:21:00.537Z,101223.56
2022-10-08T15:23:03.503Z,101266.13
2022-10-08T15:25:06.543Z,101315.50
2022-10-08T15:27:09.125Z,101302.75
2022-10-08T15:29:11.834Z,101303.34
2022-10-08T15:31:18.053Z,101271.63
2022-10-08T15:33:20.673Z,101315.34
2022-10-08T15:35:23.279Z,101322.50
2022-10-08T15:37:25.940Z,101358.91
2022-10-08T15:39:35.521Z,101328.31
2022-10-08T15:41:40.671Z,101330.84
2022-10-08T15:43:44.059Z,101317.97
2022-10-08T15:45:46.698Z,101366.19
2022-10-08T15:47:49.650Z,101347.75
2022-10-08T15:49:52.214Z,101355.53
2022-10-08T15:51:54.764Z,101341.22
2022-10-08T15:53:59.582Z,101323.06
2022-10-08T15:56:02.259Z,101332.13
2022-10-08T15:58:04.821Z,101318.38
2022-10-08T16:00:08.206Z,101346.47
2022-10-08T16:02:17.540Z,101361.81
2022-10-08T16:04:20.680Z,101355.28
2022-10-08T16:06:32.562Z,101342.00
2022-10-08T16:08:38.390Z,101344.06
2022-10-08T16:10:40.908Z,101309.88
2022-10-08T16:12:43.482Z,101317.31
2022-10-08T16:14:46.141Z,101332.22
2022-10-08T16:16:50.428Z,101353.59
2022-10-08T16:19:02.922Z,101336.25
2022-10-08T16:21:07.203Z,101381.59
2022-10-08T16:23:09.723Z,101330.53
2022-10-08T16:25:12.477Z,101369.44
2022-10-08T16:27:15.170Z,101287.03
2022-10-08T16:29:19.034Z,101401.44
2022-10-08T16:31:22.405Z,101385.25
2022-10-08T16:33:26.301Z,101389.16
2022-10-08T16:35:28.856Z,101394.84
2022-10-08T16:37:31.474Z,101296.81
2022-10-08T16:39:34.003Z,101372.13
2022-10-08T16:41:38.059Z,101338.44
2022-10-08T16:43:40.806Z,101415.03
2022-10-08T16:45:43.376Z,101389.56
2022-10-08T16:47:46.019Z,101389.03
2022-10-08T16:49:52.055Z,101400.06
2022-10-08T16:52:04.749Z,101425.88
2022-10-08T16:54:11.884Z,101408.69
2022-10-08T16:56:14.443Z,101403.75
2022-10-08T16:58:17.611Z,101401.34
2022-10-08T17:00:20.186Z,101397.81
2022-10-08T17:02:25.924Z,101415.56
2022-10-08T17:04:34.998Z,101430.47
2022-10-08T17:06:37.867Z,101432.31
2022-10-08T17:08:40.435Z,101404.91
2022-10-08T17:10:43.031Z,101455.06
2022-10-08T17:12:45.817Z,101436.34
2022-10-08T17:14:48.555Z,101395.16
2022-10-08T17:16:51.480Z,101473.28
2022-10-08T17:18:57.277Z,101453.44
2022-10-08T17:21:00.922Z,101489.44
2022-10-08T17:23:03.459Z,101471.41
2022-10-08T17:25:06.490Z,101488.38
2022-10-08T17:27:09.138Z,101484.06
2022-10-08T17:29:13.007Z,101509.34
2022-10-08T17:31:22.676Z,101490.09
2022-10-08T17:33:26.898Z,101451.75
2022-10-08T17:35:29.491Z,101487.88
2022-10-08T17:37:32.164Z,101458.28
2022-10-08T17:39:34.707Z,101499.28
2022-10-08T17:41:41.072Z,101485.50
2022-10-08T17:43:44.649Z,101494.78
2022-10-08T17:45:47.270Z,101506.34
2022-10-08T17:47:49.821Z,101501.97
2022-10-08T17:49:52.440Z,101509.72
2022-10-08T17:51:55.545Z,101512.44
2022-10-08T17:54:00.695Z,101504.16
2022-10-08T17:56:07.582Z,101521.97
2022-10-08T17:58:10.137Z,101536.53
2022-10-08T18:00:13.510Z,101528.97
2022-10-08T18:02:16.130Z,101507.97
2022-10-08T18:04:19.826Z,101550.78
2022-10-08T18:06:23.706Z,101549.81
2022-10-08T18:08:26.910Z,101551.88
2022-10-08T18:10:29.521Z,101544.91
2022-10-08T18:12:33.211Z,101544.53
2022-10-08T18:14:36.677Z,101544.84
2022-10-08T18:16:39.245Z,101557.81
2022-10-08T18:18:43.879Z,101574.19
2022-10-08T18:20:56.875Z,101577.28
2022-10-08T18:22:59.428Z,101569.03
2022-10-08T18:25:04.003Z,101578.75
2022-10-08T18:27:06.622Z,101587.63
2022-10-08T18:29:12.192Z,101587.25
2022-10-08T18:31:16.105Z,101535.50
2022-10-08T18:33:21.683Z,101557.91
2022-10-08T18:35:31.041Z,101561.22
2022-10-08T18:37:34.008Z,101555.97
2022-10-08T18:39:36.593Z,101573.31
2022-10-08T18:41:42.571Z,101544.72
2022-10-08T18:43:46.599Z,101576.59
2022-10-08T18:45:49.163Z,101595.38
2022-10-08T18:47:51.973Z,101582.25
2022-10-08T18:49:54.611Z,101580.06
2022-10-08T18:51:58.446Z,101583.28
2022-10-08T18:54:04.122Z,101571.03
2022-10-08T18:56:10.487Z,101620.22
2022-10-08T18:58:13.001Z,101597.66
2022-10-08T19:00:15.596Z,101588.22
2022-10-08T19:02:18.829Z,101610.19
2022-10-08T19:09:00.793Z,101619.94
2022-10-08T19:11:13.411Z,101601.00
2022-10-08T19:13:16.110Z,101573.81
2022-10-08T19:15:18.684Z,101634.53
2022-10-08T19:17:22.460Z,101632.94
2022-10-08T19:19:31.767Z,101656.56
2022-10-08T19:21:38.557Z,101656.19
2022-10-08T19:23:41.615Z,101609.47
2022-10-08T19:25:44.229Z,101616.13
2022-10-08T19:27:49.559Z,101626.81
2022-10-08T19:29:52.127Z,101651.25
2022-10-08T19:31:55.417Z,101658.09
2022-10-08T19:34:03.732Z,101654.47
2022-10-08T19:36:06.458Z,101652.69
2022-10-08T19:38:09.108Z,101666.41
2022-10-08T19:40:11.674Z,101652.31
2022-10-08T19:42:14.397Z,101652.13
2022-10-08T19:44:17.417Z,101651.53
2022-10-08T19:46:20.769Z,101661.81
2022-10-08T19:48:23.763Z,101657.78
2022-10-08T19:50:26.316Z,101643.66
2022-10-08T19:52:28.934Z,101670.94
2022-10-08T19:54:31.497Z,101668.91
2022-10-08T19:56:34.106Z,101656.84
2022-10-08T19:58:39.241Z,101700.00
2022-10-08T20:00:41.808Z,101713.75
2022-10-08T20:02:44.410Z,101664.91
2022-10-08T20:04:47.657Z,101680.28
2022-10-08T20:06:51.067Z,101683.28
2022-10-08T20:08:56.580Z,101715.19
2022-10-08T20:11:04.293Z,101701.50
2022-10-08T20:13:06.879Z,101706.34
2022-10-08T20:15:10.359Z,101725.31
2022-10-08T20:17:12.939Z,101675.66
2022-10-08T20:19:21.497Z,101732.56
2022-10-08T20:21:24.087Z,101673.28
2022-10-08T20:23:28.787Z,101722.53
2022-10-08T20:25:31.377Z,101677.13
2022-10-08T20:27:34.054Z,101733.00
2022-10-08T20:29:38.394Z,101752.19
2022-10-08T20:31:45.153Z,101725.75
2022-10-08T20:33:48.557Z,101717.28
2022-10-08T20:35:51.148Z,101743.91
2022-10-08T20:37:53.746Z,101723.13
2022-10-08T20:39:56.418Z,101701.56
2022-10-08T20:41:59.721Z,101768.38
2022-10-08T20:44:04.161Z,101753.25
2022-10-08T20:46:10.046Z,101769.38
2022-10-08T20:48:12.611Z,101759.28
2022-10-08T20:50:15.241Z,101757.28
2022-10-08T20:52:17.821Z,101737.28
2022-10-08T20:54:21.161Z,101755.25
2022-10-08T20:56:25.374Z,101743.97
2022-10-08T20:58:27.958Z,101783.75
2022-10-08T21:00:32.622Z,101774.66
2022-10-08T21:02:38.669Z,101710.47
2022-10-08T21:04:41.237Z,101762.16
2022-10-08T21:06:47.484Z,101784.75
2022-10-08T21:08:52.872Z,101788.19
2022-10-08T21:10:55.457Z,101719.78
2022-10-08T21:12:58.033Z,101759.75
2022-10-08T21:15:00.596Z,101783.97
2022-10-08T21:17:03.125Z,101775.28
2022-10-08T21:19:11.198Z,101804.78
2022-10-08T21:21:42.029Z,101793.69
2022-10-08T21:23:50.795Z,101808.06
2022-10-08T21:25:53.365Z,101792.88
2022-10-08T21:27:56.235Z,101807.84
2022-10-08T21:29:58.732Z,101728.47
2022-10-08T21:32:01.406Z,101789.69
2022-10-08T21:34:05.417Z,101798.94
2022-10-08T21:36:12.746Z,101762.03
2022-10-08T21:38:15.322Z,101803.03
2022-10-08T21:40:17.914Z,101782.44
2022-10-08T21:42:20.703Z,101791.94
2022-10-08T21:44:23.699Z,101795.16
2022-10-08T21:46:30.385Z,101816.78
2022-10-08T21:48:33.611Z,101736.59
2022-10-08T21:50:36.816Z,101783.66
2022-10-08T21:52:39.357Z,101796.38
2022-10-08T21:54:42.002Z,101771.97
2022-10-08T21:56:45.352Z,101791.13
2022-10-08T21:58:53.059Z,101792.13
2022-10-08T22:00:56.190Z,101815.59
2022-10-08T22:02:58.769Z,101802.44
2022-10-08T22:05:01.350Z,101783.06
2022-10-08T22:07:05.358Z,101791.72
2022-10-08T22:09:12.946Z,101825.69
2022-10-08T22:11:15.899Z,101824.06
2022-10-08T22:13:19.322Z,101818.00
2022-10-08T22:15:24.161Z,101820.63
2022-10-08T22:17:27.801Z,101810.53
2022-10-08T22:19:30.330Z,101823.66
2022-10-08T22:21:33.553Z,101809.75
2022-10-08T22:23:37.091Z,101838.03
2022-10-08T22:25:39.717Z,101757.81
2022-10-08T22:27:42.305Z,101805.09
2022-10-08T22:29:44.895Z,101841.06
2022-10-08T22:31:56.824Z,101828.13
2022-10-08T22:33:59.674Z,101825.28
2022-10-08T22:36:05.909Z,101845.50
2022-10-08T22:38:08.684Z,101829.72
2022-10-08T22:40:11.300Z,101809.94
2022-10-08T22:42:13.836Z,101820.84
2022-10-08T22:44:16.509Z,101810.78
2022-10-08T22:46:38.149Z,101828.75
2022-10-08T22:48:41.179Z,101824.91
2022-10-08T22:50:43.698Z,101802.69
2022-10-08T22:52:50.049Z,101835.59
2022-10-08T22:54:52.836Z,101833.38
2022-10-08T22:56:55.426Z,101826.53
2022-10-08T22:58:59.652Z,101839.25
2022-10-08T23:01:09.151Z,101805.28
2022-10-08T23:03:11.750Z,101825.91
2022-10-08T23:05:14.304Z,101824.31
2022-10-08T23:08:07.948Z,101848.97
2022-10-08T23:10:10.474Z,101827.72
2022-10-08T23:12:12.986Z,101846.91
2022-10-08T23:14:15.887Z,101861.69
2022-10-08T23:16:19.465Z,101832.75
2022-10-08T23:18:22.078Z,101832.75
2022-10-08T23:20:24.593Z,101853.59
2022-10-08T23:22:28.493Z,101842.66
2022-10-08T23:24:31.237Z,101813.78
2022-10-08T23:26:34.596Z,101842.25
2022-10-08T23:28:38.494Z,101845.28
2022-10-08T23:30:43.576Z,101851.94
2022-10-08T23:32:46.581Z,101861.25
2022-10-08T23:34:49.308Z,101861.03
2022-10-08T23:37:17.515Z,101835.34
2022-10-08T23:39:21.669Z,101810.25
2022-10-08T23:41:25.223Z,101868.91
2022-10-08T23:43:43.086Z,101884.69
2022-10-08T23:45:45.655Z,101861.66
2022-10-08T23:47:48.304Z,101863.25
2022-10-08T23:49:50.818Z,101873.34
2022-10-08T23:51:53.389Z,101860.63
2022-10-08T23:53:56.176Z,101832.03
2022-10-08T23:55:58.740Z,101844.19
2022-10-08T23:58:01.294Z,101819.72
